Time;durP1;ratioP1;P1;durP2;ratioP2;P2;SDS_P1;SDS_P2;PMS_P1;PMS_P2;Temp;Humidity;BMP_temperature;BMP_pressure;BME280_temperature;BME280_humidity;BME280_pressure;Samples;Min_cycle;Max_cycle;Signal;HPM_P1;HPM_P2
2024/01/27 00:05:53;;;;;;;91.40;48.30;;;205.10;2252.80;;;;;;4850805;24;20069;-76
2024/01/27 00:08:19;;;;;;;49.08;26.23;;;205.10;2252.80;;;;;;4812562;29;20079;-75
2024/01/27 00:10:45;;;;;;;41.42;24.75;;;205.10;2252.80;;;;;;4795701;29;20087;-74
2024/01/27 00:15:47;;;;;;;82.95;47.40;;;204.90;2252.80;;;;;;4829567;24;20055;-80
2024/01/27 00:18:29;;;;;;;120.43;65.22;;;204.90;2252.80;;;;;;4820458;24;20052;-74
2024/01/27 00:23:21;;;;;;;25.98;14.82;;;204.90;2252.80;;;;;;4809497;24;20111;-75
2024/01/27 00:25:46;;;;;;;24.95;13.68;;;204.80;2252.80;;;;;;4818029;24;20531;-74
2024/01/27 00:28:12;;;;;;;92.78;55.35;;;180.00;2252.80;;;;;;4815835;24;20047;-75
2024/01/27 00:30:38;;;;;;;54.58;34.85;;;205.40;2252.80;;;;;;4827467;24;20084;-74
2024/01/27 00:35:29;;;;;;;111.18;87.90;;;154.30;2252.80;;;;;;4805774;24;20100;-72
2024/01/27 00:40:20;;;;;;;18.80;16.90;;;180.10;2252.80;;;;;;4819124;24;20051;-75
2024/01/27 00:42:46;;;;;;;21.85;19.52;;;204.90;2252.80;;;;;;5067063;24;20030;-76
2024/01/27 00:45:11;;;;;;;20.15;13.88;;;205.00;2252.80;;;;;;4891420;24;20055;-74
2024/01/27 00:47:37;;;;;;;19.25;10.60;;;205.00;2252.80;;;;;;4800373;30;20027;-78
2024/01/27 00:52:33;;;;;;;10.52;7.68;;;205.40;2252.80;;;;;;4820060;24;20070;-75
2024/01/27 00:54:59;;;;;;;15.18;9.80;;;205.60;2252.80;;;;;;4814420;24;20118;-76
2024/01/27 00:57:24;;;;;;;31.27;19.98;;;205.70;2252.80;;;;;;4818268;24;20072;-74
2024/01/27 01:06:38;;;;;;;15.35;9.25;;;230.50;2252.80;;;;;;4813340;24;20066;-75
2024/01/27 01:09:04;;;;;;;29.50;17.90;;;230.60;2252.80;;;;;;4958679;24;20063;-74
2024/01/27 01:14:11;;;;;;;24.15;15.52;;;230.80;2252.80;;;;;;4827423;24;20059;-73
2024/01/27 01:16:37;;;;;;;53.05;34.88;;;230.70;2252.80;;;;;;4813810;24;20097;-74
2024/01/27 01:19:03;;;;;;;62.92;30.95;;;230.60;2252.80;;;;;;4799786;30;20023;-74
2024/01/27 01:21:35;;;;;;;41.53;26.60;;;230.50;2252.80;;;;;;4794233;29;20032;-74
2024/01/27 01:24:03;;;;;;;43.53;26.85;;;205.60;2252.80;;;;;;4796295;30;20043;-75
2024/01/27 01:26:29;;;;;;;33.03;21.33;;;205.20;2252.80;;;;;;4809077;24;20067;-74
2024/01/27 01:28:54;;;;;;;23.70;14.32;;;205.40;2252.80;;;;;;4793121;30;20106;-75
2024/01/27 01:31:21;;;;;;;10.02;6.55;;;205.60;2252.80;;;;;;4810241;30;20003;-78
2024/01/27 01:33:47;;;;;;;30.58;20.73;;;205.70;2252.80;;;;;;5059010;24;20018;-79
2024/01/27 01:36:13;;;;;;;27.45;18.00;;;230.40;2252.80;;;;;;4811037;24;20093;-76
2024/01/27 01:38:39;;;;;;;18.25;10.82;;;230.50;2252.80;;;;;;4814283;24;20035;-75
2024/01/27 01:43:39;;;;;;;15.15;9.57;;;230.70;2252.80;;;;;;4817353;24;20065;-75
2024/01/27 01:46:05;;;;;;;16.35;9.18;;;230.60;2252.80;;;;;;4809374;30;20066;-74
2024/01/27 01:48:31;;;;;;;10.38;5.57;;;230.70;2252.80;;;;;;4797876;30;20043;-76
2024/01/27 01:53:23;;;;;;;15.15;8.85;;;230.90;2252.80;;;;;;4829405;24;20048;-76
2024/01/27 01:55:50;;;;;;;11.60;9.18;;;231.00;2252.80;;;;;;4812413;30;20051;-73
2024/01/27 02:00:46;;;;;;;40.85;23.27;;;230.90;2252.80;;;;;;4816238;24;20043;-79
2024/01/27 02:03:12;;;;;;;36.63;20.02;;;230.50;2252.80;;;;;;4828825;24;20115;-75
2024/01/27 02:05:39;;;;;;;52.47;33.28;;;230.60;2252.80;;;;;;4803848;24;20059;-79
2024/01/27 02:08:05;;;;;;;31.85;21.05;;;230.60;2252.80;;;;;;4823363;24;20059;-76
2024/01/27 02:10:36;;;;;;;31.35;19.35;;;230.60;2252.80;;;;;;4788533;24;20122;-79
2024/01/27 02:13:19;;;;;;;19.27;13.05;;;230.60;2252.80;;;;;;4821692;24;20153;-75
2024/01/27 02:15:45;;;;;;;10.32;7.53;;;230.60;2252.80;;;;;;4803087;24;20064;-78
2024/01/27 02:18:10;;;;;;;15.40;9.57;;;230.80;2252.80;;;;;;4818979;24;20046;-75
2024/01/27 02:20:37;;;;;;;15.43;7.50;;;230.70;2252.80;;;;;;4803091;24;20051;-75
2024/01/27 02:23:04;;;;;;;10.02;5.85;;;230.80;2252.80;;;;;;4965058;24;20055;-73
2024/01/27 02:25:34;;;;;;;9.30;5.18;;;230.90;2252.80;;;;;;4796875;30;20024;-76
2024/01/27 02:30:47;;;;;;;8.35;4.05;;;231.00;2252.80;;;;;;4821206;24;20067;-78
2024/01/27 02:33:13;;;;;;;5.30;3.30;;;231.10;2252.80;;;;;;4774793;24;1342144;-77
2024/01/27 02:35:38;;;;;;;5.57;3.35;;;231.10;2252.80;;;;;;4788657;30;20126;-79
2024/01/27 02:38:04;;;;;;;6.20;3.42;;;231.10;2252.80;;;;;;4807076;24;20064;-75
2024/01/27 02:40:30;;;;;;;7.82;4.53;;;231.10;2252.80;;;;;;4800330;24;20039;-79
2024/01/27 02:42:56;;;;;;;14.57;8.10;;;231.10;2252.80;;;;;;4822066;24;20108;-78
2024/01/27 02:45:21;;;;;;;20.42;13.85;;;231.10;2252.80;;;;;;4817805;24;20085;-74
2024/01/27 02:47:47;;;;;;;15.40;8.30;;;231.20;2252.80;;;;;;4817033;24;20119;-76
2024/01/27 02:50:13;;;;;;;12.43;7.63;;;230.70;2252.80;;;;;;4804307;30;20046;-76
2024/01/27 02:52:39;;;;;;;13.93;7.32;;;230.60;2252.80;;;;;;4804986;30;20020;-79
2024/01/27 02:55:05;;;;;;;22.15;12.75;;;230.40;2252.80;;;;;;4803117;29;20038;-78
2024/01/27 02:57:31;;;;;;;16.77;9.48;;;230.40;2252.80;;;;;;4802248;30;20228;-80
2024/01/27 02:59:57;;;;;;;20.00;12.38;;;205.70;2252.80;;;;;;4802754;29;20024;-77
2024/01/27 03:02:23;;;;;;;25.40;14.38;;;205.70;2252.80;;;;;;4806577;30;20075;-73
2024/01/27 03:04:49;;;;;;;19.15;12.63;;;205.70;2252.80;;;;;;4804624;30;20024;-77
2024/01/27 03:07:15;;;;;;;21.92;11.50;;;205.70;2252.80;;;;;;4886350;24;20060;-74
2024/01/27 03:09:40;;;;;;;17.85;10.13;;;205.70;2252.80;;;;;;4788413;30;20031;-74
2024/01/27 03:12:07;;;;;;;18.92;10.90;;;205.70;2252.80;;;;;;4799339;24;20084;-73
2024/01/27 03:14:55;;;;;;;12.75;9.52;;;205.60;2252.80;;;;;;4805888;30;20039;-76
2024/01/27 03:17:21;;;;;;;12.90;8.70;;;205.60;2252.80;;;;;;4809239;29;20034;-75
2024/01/27 03:19:59;;;;;;;14.23;9.30;;;205.60;2252.80;;;;;;4825971;29;20030;-76
2024/01/27 03:22:25;;;;;;;13.50;8.82;;;205.60;2252.80;;;;;;4825707;24;20051;-77
2024/01/27 03:24:53;;;;;;;16.70;8.70;;;205.60;2252.80;;;;;;4810880;24;20088;-74
2024/01/27 03:27:18;;;;;;;13.73;8.88;;;205.50;2252.80;;;;;;4805176;30;20165;-74
2024/01/27 03:30:03;;;;;;;10.50;7.78;;;205.50;2252.80;;;;;;4808021;24;20055;-77
2024/01/27 03:32:33;;;;;;;14.60;7.63;;;205.50;2252.80;;;;;;4803070;30;20059;-77
2024/01/27 03:35:02;;;;;;;12.20;7.57;;;205.40;2252.80;;;;;;4801114;30;20390;-76
2024/01/27 03:37:28;;;;;;;10.88;8.15;;;205.40;2252.80;;;;;;4809147;24;20055;-79
2024/01/27 03:39:54;;;;;;;20.60;11.75;;;205.40;2252.80;;;;;;4789605;30;20043;-78
2024/01/27 03:45:13;;;;;;;13.88;8.63;;;205.40;2252.80;;;;;;4799661;27;20051;-77
2024/01/27 03:47:39;;;;;;;13.23;7.88;;;205.40;2252.80;;;;;;4888528;24;20064;-74
2024/01/27 03:52:35;;;;;;;13.23;7.85;;;205.20;2252.80;;;;;;4801410;30;20069;-75
2024/01/27 03:55:01;;;;;;;45.10;22.02;;;205.10;2252.80;;;;;;4800235;30;20036;-73
2024/01/27 03:57:27;;;;;;;28.65;25.42;;;205.10;2252.80;;;;;;4813558;24;20063;-76
2024/01/27 03:59:52;;;;;;;11.10;5.28;;;205.00;2252.80;;;;;;4801603;30;20051;-74
2024/01/27 04:02:18;;;;;;;13.90;12.50;;;205.00;2252.80;;;;;;4803658;29;20050;-80
2024/01/27 04:04:44;;;;;;;21.17;14.48;;;205.00;2252.80;;;;;;4802601;30;20051;-80
2024/01/27 04:09:42;;;;;;;16.00;9.83;;;205.00;2252.80;;;;;;4805859;29;20063;-76
2024/01/27 04:15:30;;;;;;;16.60;8.88;;;205.10;2252.80;;;;;;4810254;24;20059;-82
2024/01/27 04:20:21;;;;;;;16.23;9.18;;;205.10;2252.80;;;;;;4831048;24;20128;-75
2024/01/27 04:22:47;;;;;;;10.20;6.72;;;205.20;2252.80;;;;;;4790768;30;20103;-82
2024/01/27 04:27:43;;;;;;;13.07;8.23;;;205.10;2252.80;;;;;;4866548;24;20051;-75
2024/01/27 04:30:10;;;;;;;30.70;12.52;;;205.10;2252.80;;;;;;4821023;24;20062;-74
2024/01/27 04:32:36;;;;;;;10.35;6.82;;;205.10;2252.80;;;;;;4815467;24;20067;-77
2024/01/27 04:35:03;;;;;;;71.18;28.58;;;205.20;2252.80;;;;;;4811486;24;20054;-75
2024/01/27 04:37:28;;;;;;;20.80;12.98;;;205.10;2252.80;;;;;;4810426;29;20035;-75
2024/01/27 04:39:54;;;;;;;13.25;6.75;;;205.20;2252.80;;;;;;4807251;29;20018;-74
2024/01/27 04:42:20;;;;;;;12.55;7.90;;;205.20;2252.80;;;;;;4811026;24;20126;-77
2024/01/27 04:44:46;;;;;;;13.80;7.15;;;205.10;2252.80;;;;;;4887437;24;20047;-79
2024/01/27 04:47:12;;;;;;;11.32;6.78;;;205.20;2252.80;;;;;;4810188;24;20047;-75
2024/01/27 04:49:38;;;;;;;14.02;8.30;;;205.20;2252.80;;;;;;4815889;24;20138;-81
2024/01/27 04:52:04;;;;;;;12.13;6.55;;;205.20;2252.80;;;;;;4807232;29;20040;-76
2024/01/27 04:54:29;;;;;;;14.13;7.35;;;205.20;2252.80;;;;;;4802102;29;20470;-78
2024/01/27 04:56:55;;;;;;;20.88;10.02;;;205.20;2252.80;;;;;;4810138;24;20071;-75
2024/01/27 04:59:21;;;;;;;14.38;7.80;;;205.20;2252.80;;;;;;4804569;29;20019;-74
2024/01/27 05:01:47;;;;;;;15.88;7.10;;;205.20;2252.80;;;;;;4804987;29;20114;-76
2024/01/27 05:04:13;;;;;;;81.63;54.45;;;205.40;2252.80;;;;;;4805289;29;20028;-77
2024/01/27 05:06:43;;;;;;;17.15;8.63;;;205.10;2252.80;;;;;;4803107;24;20112;-73
2024/01/27 05:09:09;;;;;;;12.63;6.65;;;205.10;2252.80;;;;;;4784176;30;20043;-74
2024/01/27 05:11:34;;;;;;;42.60;19.20;;;205.10;2252.80;;;;;;4976535;24;20249;-76
2024/01/27 05:14:06;;;;;;;27.35;11.10;;;205.10;2252.80;;;;;;4780013;24;20457;-75
2024/01/27 05:16:33;;;;;;;12.10;5.22;;;205.00;2252.80;;;;;;4800715;24;20063;-80
2024/01/27 05:18:59;;;;;;;9.25;5.43;;;204.90;2252.80;;;;;;4818920;24;20091;-81
2024/01/27 05:21:24;;;;;;;16.45;8.63;;;204.90;2252.80;;;;;;4879739;24;20018;-75
2024/01/27 05:23:50;;;;;;;13.15;6.60;;;204.80;2252.80;;;;;;4790342;30;20043;-81
2024/01/27 05:26:16;;;;;;;11.95;5.20;;;180.10;2252.80;;;;;;4809038;30;20135;-81
2024/01/27 05:28:42;;;;;;;19.85;11.27;;;180.10;2252.80;;;;;;4820495;24;20039;-79
2024/01/27 05:31:10;;;;;;;10.98;5.47;;;180.10;2252.80;;;;;;4879681;24;20046;-76
2024/01/27 05:33:37;;;;;;;9.38;5.50;;;180.10;2252.80;;;;;;4806929;29;20083;-81
2024/01/27 05:36:02;;;;;;;15.23;5.82;;;180.10;2252.80;;;;;;4815607;24;20049;-75
2024/01/27 05:38:30;;;;;;;12.93;5.85;;;180.10;2252.80;;;;;;4803046;30;20055;-81
2024/01/27 05:43:22;;;;;;;12.52;6.30;;;180.10;2252.80;;;;;;4897090;24;20056;-81
2024/01/27 05:45:49;;;;;;;8.15;4.38;;;180.10;2252.80;;;;;;4887625;24;20084;-81
2024/01/27 05:48:14;;;;;;;9.05;3.70;;;180.00;2252.80;;;;;;4823506;24;20059;-75
2024/01/27 05:50:42;;;;;;;7.47;3.70;;;180.00;2252.80;;;;;;4815056;24;20116;-75
2024/01/27 05:53:39;;;;;;;11.00;5.10;;;179.80;2252.80;;;;;;4895191;24;20539;-75
2024/01/27 05:56:16;;;;;;;6.80;3.33;;;179.80;2252.80;;;;;;4800125;24;20091;-74
2024/01/27 05:58:42;;;;;;;5.97;2.75;;;179.80;2252.80;;;;;;4889146;24;20038;-75
2024/01/27 06:01:09;;;;;;;8.50;3.45;;;179.80;2252.80;;;;;;4819472;24;20051;-76
2024/01/27 06:03:35;;;;;;;9.77;2.92;;;179.70;2252.80;;;;;;4804877;29;20012;-78
2024/01/27 06:06:01;;;;;;;6.95;3.13;;;179.70;2252.80;;;;;;4806891;24;20085;-77
2024/01/27 06:08:27;;;;;;;8.05;3.28;;;179.70;2252.80;;;;;;4803627;24;20051;-81
2024/01/27 06:10:53;;;;;;;8.93;5.45;;;179.70;2252.80;;;;;;4813800;29;20091;-74
2024/01/27 06:13:18;;;;;;;5.43;2.65;;;179.70;2252.80;;;;;;4823591;29;20394;-77
2024/01/27 06:15:49;;;;;;;6.72;4.95;;;179.70;2252.80;;;;;;4815761;29;20031;-74
2024/01/27 06:18:15;;;;;;;6.65;3.50;;;179.60;2252.80;;;;;;4882273;24;20069;-77
2024/01/27 06:20:41;;;;;;;4.35;2.70;;;179.60;2252.80;;;;;;4906202;24;20066;-74
2024/01/27 06:25:37;;;;;;;15.05;13.63;;;179.70;2252.80;;;;;;4814124;24;20059;-80
2024/01/27 06:28:03;;;;;;;6.40;3.33;;;179.70;2252.80;;;;;;4799570;29;20071;-75
2024/01/27 06:30:28;;;;;;;5.97;2.75;;;179.70;2252.80;;;;;;4789428;30;20074;-77
2024/01/27 06:35:19;;;;;;;4.72;2.65;;;179.70;2252.80;;;;;;4813338;24;20039;-78
2024/01/27 06:37:45;;;;;;;4.97;2.80;;;179.70;2252.80;;;;;;4822828;24;20097;-81
2024/01/27 06:40:12;;;;;;;6.93;3.50;;;204.80;2252.80;;;;;;4824172;24;20040;-76
2024/01/27 06:42:37;;;;;;;40.70;20.15;;;179.70;2252.80;;;;;;4814045;24;20047;-75
2024/01/27 06:45:54;;;;;;;18.67;11.35;;;179.70;2252.80;;;;;;4818592;24;20076;-81
2024/01/27 06:48:20;;;;;;;37.67;20.80;;;179.70;2252.80;;;;;;4805803;29;20099;-81
2024/01/27 06:50:46;;;;;;;23.73;16.33;;;179.80;2252.80;;;;;;4901389;24;20047;-74
2024/01/27 06:53:12;;;;;;;5.68;4.10;;;179.70;2252.80;;;;;;4816980;24;20024;-80
2024/01/27 06:55:37;;;;;;;7.13;5.63;;;179.70;2252.80;;;;;;4827533;24;20051;-76
2024/01/27 06:58:03;;;;;;;7.82;5.40;;;179.80;2252.80;;;;;;4796704;29;20028;-74
2024/01/27 07:00:29;;;;;;;4.05;2.28;;;179.80;2252.80;;;;;;4795426;30;20047;-75
2024/01/27 07:02:58;;;;;;;9.32;5.95;;;179.80;2252.80;;;;;;4796328;29;20023;-76
2024/01/27 07:05:23;;;;;;;9.70;4.55;;;179.90;2252.80;;;;;;4805664;24;20066;-74
2024/01/27 07:07:49;;;;;;;5.93;4.75;;;179.80;2252.80;;;;;;4796708;24;20055;-73
2024/01/27 07:10:15;;;;;;;7.95;7.22;;;179.90;2252.80;;;;;;4800910;24;20550;-77
2024/01/27 07:12:41;;;;;;;4.72;3.78;;;179.90;2252.80;;;;;;4811027;24;20075;-75
2024/01/27 07:15:07;;;;;;;4.45;2.35;;;180.00;2252.80;;;;;;4808530;24;20035;-74
2024/01/27 07:17:35;;;;;;;7.45;2.63;;;180.10;2252.80;;;;;;4805211;30;20030;-74
2024/01/27 07:20:01;;;;;;;4.13;2.08;;;180.10;2252.80;;;;;;4804524;29;20389;-74
2024/01/27 07:22:27;;;;;;;3.67;2.63;;;204.80;2252.80;;;;;;4807819;30;20062;-74
2024/01/27 07:24:53;;;;;;;6.35;3.97;;;205.00;2252.80;;;;;;4805992;24;20499;-73
2024/01/27 07:27:19;;;;;;;40.28;22.33;;;205.00;2252.80;;;;;;4802627;24;20036;-74
2024/01/27 07:29:44;;;;;;;10.77;5.32;;;205.30;2252.80;;;;;;4803931;30;20081;-76
2024/01/27 07:32:13;;;;;;;4.25;2.50;;;205.50;2252.80;;;;;;4984399;24;20054;-74
2024/01/27 07:34:42;;;;;;;26.00;12.00;;;205.50;2252.80;;;;;;4784118;30;20036;-73
2024/01/27 07:37:08;;;;;;;6.45;2.50;;;205.60;2252.80;;;;;;4772783;30;20015;-75
2024/01/27 07:39:34;;;;;;;4.00;2.15;;;230.40;2252.80;;;;;;4800188;30;20031;-76
2024/01/27 07:42:00;;;;;;;3.45;2.15;;;230.40;2252.80;;;;;;4799931;30;20071;-73
2024/01/27 07:44:26;;;;;;;10.93;6.15;;;230.60;2252.80;;;;;;4779944;30;20034;-73
2024/01/27 07:46:52;;;;;;;6.90;2.63;;;230.80;2252.80;;;;;;4799175;24;20120;-74
2024/01/27 07:51:53;;;;;;;17.20;8.40;;;231.00;2252.80;;;;;;4075131;27;20048;-74
2024/01/27 07:54:19;;;;;;;7.20;3.60;;;230.70;2252.80;;;;;;4800956;30;20035;-72
2024/01/27 07:56:48;;;;;;;60.05;26.80;;;230.70;2252.80;;;;;;4793543;29;20043;-74
2024/01/27 07:59:14;;;;;;;9.02;4.68;;;230.60;2252.80;;;;;;4804600;24;20016;-75
2024/01/27 08:01:43;;;;;;;50.75;22.23;;;230.90;2252.80;;;;;;4796104;24;20055;-72
2024/01/27 08:04:09;;;;;;;38.08;23.67;;;231.10;2252.80;;;;;;4896053;24;20084;-74
2024/01/27 08:06:45;;;;;;;27.58;14.35;;;281.80;2278.40;;;;;;4816522;24;20071;-74
2024/01/27 08:09:11;;;;;;;30.33;16.40;;;256.90;2252.80;;;;;;4798063;24;20038;-73
2024/01/27 08:11:37;;;;;;;12.15;7.90;;;256.80;2252.80;;;;;;4794375;30;20046;-73
2024/01/27 08:14:03;;;;;;;10.25;7.32;;;282.20;2227.20;;;;;;4795506;24;20052;-72
2024/01/27 08:16:28;;;;;;;13.05;10.00;;;307.30;2176.00;;;;;;4813860;24;20062;-77
2024/01/27 08:18:54;;;;;;;23.92;16.30;;;307.70;2124.80;;;;;;4778423;30;20065;-73
2024/01/27 08:21:20;;;;;;;41.22;30.95;;;282.00;2201.60;;;;;;4781807;30;20434;-74
2024/01/27 08:23:46;;;;;;;20.70;12.80;;;307.90;2099.20;;;;;;4875464;24;20061;-73
2024/01/27 08:26:12;;;;;;;15.20;11.32;;;307.40;2150.40;;;;;;4803360;30;20066;-75
2024/01/27 08:28:37;;;;;;;136.70;59.08;;;332.80;2073.60;;;;;;4779126;30;20058;-74
2024/01/27 08:31:04;;;;;;;6.70;4.38;;;308.00;2073.60;;;;;;4905488;24;20066;-75
2024/01/27 08:33:30;;;;;;;35.53;23.67;;;332.90;2073.60;;;;;;4785137;29;20023;-75
2024/01/27 08:35:56;;;;;;;40.83;27.27;;;333.70;1996.80;;;;;;4775133;29;20048;-74
2024/01/27 08:38:22;;;;;;;13.50;7.18;;;333.00;2048.00;;;;;;4768065;29;20055;-74
2024/01/27 08:40:48;;;;;;;14.43;9.65;;;358.50;1945.60;;;;;;4787617;29;20041;-83
2024/01/27 08:43:14;;;;;;;12.05;6.03;;;359.10;1868.80;;;;;;4783309;29;20035;-75
2024/01/27 08:45:40;;;;;;;20.65;13.95;;;384.40;1817.60;;;;;;4781964;29;20070;-76
2024/01/27 08:48:06;;;;;;;14.45;11.52;;;409.70;1792.00;;;;;;4773936;29;20494;-83
2024/01/27 08:50:32;;;;;;;15.18;12.70;;;410.10;1740.80;;;;;;4785389;29;20040;-77
2024/01/27 08:52:58;;;;;;;19.67;15.52;;;410.00;1740.80;;;;;;4793908;29;20032;-83
2024/01/27 08:55:24;;;;;;;15.65;12.57;;;410.20;1715.20;;;;;;4777579;29;20046;-74
2024/01/27 08:57:53;;;;;;;10.18;7.07;;;384.70;1715.20;;;;;;4783829;29;20027;-81
2024/01/27 09:00:19;;;;;;;8.40;6.07;;;409.60;1715.20;;;;;;4776000;30;20134;-77
2024/01/27 09:02:45;;;;;;;17.45;10.68;;;410.10;1689.60;;;;;;4777072;29;20031;-75
2024/01/27 09:05:10;;;;;;;11.10;8.13;;;410.30;1664.00;;;;;;4767701;30;20089;-74
2024/01/27 09:07:36;;;;;;;8.48;6.05;;;435.60;1638.40;;;;;;4781570;29;20031;-75
2024/01/27 09:10:03;;;;;;;24.90;16.00;;;436.00;1587.20;;;;;;4781700;30;20031;-74
2024/01/27 09:12:29;;;;;;;10.18;7.07;;;435.60;1612.80;;;;;;4770890;30;20039;-81
2024/01/27 09:14:54;;;;;;;7.05;5.22;;;435.90;1587.20;;;;;;4775486;30;20031;-75
2024/01/27 09:17:21;;;;;;;10.07;5.80;;;436.10;1587.20;;;;;;4782303;29;20067;-76
2024/01/27 09:19:47;;;;;;;8.00;4.95;;;436.10;1561.60;;;;;;4786577;29;20027;-75
2024/01/27 09:22:13;;;;;;;9.60;7.97;;;435.70;1587.20;;;;;;4786967;29;20043;-80
2024/01/27 09:24:39;;;;;;;7.55;5.70;;;435.60;1587.20;;;;;;4780819;29;20032;-74
2024/01/27 09:27:05;;;;;;;11.93;5.95;;;435.50;1561.60;;;;;;4776477;29;20035;-76
2024/01/27 09:29:31;;;;;;;15.50;9.70;;;435.80;1510.40;;;;;;4778062;30;20032;-77
2024/01/27 09:31:57;;;;;;;9.48;6.13;;;461.00;1536.00;;;;;;4786051;29;20059;-77
2024/01/27 09:34:22;;;;;;;8.93;7.40;;;435.90;1510.40;;;;;;4786194;29;20042;-79
2024/01/27 09:36:48;;;;;;;9.13;5.97;;;460.80;1561.60;;;;;;4786170;30;20043;-79
2024/01/27 09:39:14;;;;;;;7.90;4.82;;;435.60;1561.60;;;;;;4785164;30;20391;-78
2024/01/27 09:41:40;;;;;;;15.88;9.90;;;410.20;1587.20;;;;;;4780000;30;20474;-75
2024/01/27 09:44:06;;;;;;;11.38;9.45;;;410.30;1612.80;;;;;;4783566;29;20031;-76
2024/01/27 09:46:32;;;;;;;12.45;9.18;;;384.60;1638.40;;;;;;4786392;30;20973;-76
2024/01/27 09:48:58;;;;;;;11.65;8.40;;;384.50;1612.80;;;;;;4785594;30;20115;-76
2024/01/27 09:51:25;;;;;;;12.90;9.95;;;384.20;1638.40;;;;;;4785845;30;20039;-77
2024/01/27 09:53:52;;;;;;;16.02;11.38;;;359.00;1664.00;;;;;;4785501;30;20377;-76
2024/01/27 09:56:18;;;;;;;11.25;8.10;;;358.80;1664.00;;;;;;4785909;30;20039;-76
2024/01/27 09:58:45;;;;;;;14.95;9.23;;;359.10;1689.60;;;;;;4785223;30;20375;-76
2024/01/27 10:01:12;;;;;;;17.17;11.93;;;358.80;1715.20;;;;;;4785280;30;20043;-76
2024/01/27 10:03:41;;;;;;;9.52;5.65;;;358.90;1689.60;;;;;;4782468;30;20035;-76
2024/01/27 10:06:10;;;;;;;13.50;7.20;;;358.60;1715.20;;;;;;4785828;30;20435;-76
2024/01/27 10:08:37;;;;;;;7.53;4.80;;;333.70;1766.40;;;;;;4785555;30;20084;-77
2024/01/27 10:11:10;;;;;;;13.90;8.60;;;333.20;1766.40;;;;;;4776403;30;20046;-77
2024/01/27 10:13:36;;;;;;;22.58;18.73;;;358.50;1715.20;;;;;;4785234;29;20356;-75
2024/01/27 10:16:03;;;;;;;20.55;14.55;;;359.10;1689.60;;;;;;4785464;30;20043;-76
2024/01/27 10:18:33;;;;;;;16.95;11.40;;;384.20;1664.00;;;;;;4785764;30;20055;-76
2024/01/27 10:20:59;;;;;;;13.40;7.72;;;384.10;1638.40;;;;;;4785507;30;20907;-75
2024/01/27 10:23:25;;;;;;;16.25;9.25;;;359.20;1664.00;;;;;;4781013;30;20399;-76
2024/01/27 10:25:51;;;;;;;21.27;14.88;;;358.50;1689.60;;;;;;4785638;30;20039;-76
2024/01/27 10:28:17;;;;;;;12.43;7.38;;;333.20;1740.80;;;;;;4785202;29;20110;-75
2024/01/27 10:30:44;;;;;;;10.38;7.10;;;307.80;1766.40;;;;;;4785412;30;20514;-74
2024/01/27 10:33:13;;;;;;;32.38;19.73;;;307.80;1766.40;;;;;;4784875;30;20055;-75
2024/01/27 10:35:39;;;;;;;16.73;11.32;;;307.80;1792.00;;;;;;4775636;30;20073;-74
2024/01/27 10:38:05;;;;;;;21.48;13.98;;;307.70;1792.00;;;;;;4785555;30;20023;-75
2024/01/27 10:40:31;;;;;;;13.60;7.68;;;307.40;1817.60;;;;;;4785817;30;20031;-75
2024/01/27 10:43:17;;;;;;;96.82;47.85;;;307.20;1843.20;;;;;;4785704;30;20523;-75
2024/01/27 10:45:44;;;;;;;22.42;15.18;;;282.30;1817.60;;;;;;4778512;30;20035;-75
2024/01/27 10:48:11;;;;;;;71.47;42.95;;;282.10;1843.20;;;;;;4774874;30;20061;-74
2024/01/27 10:50:39;;;;;;;11.45;6.20;;;282.10;1843.20;;;;;;4769950;30;20122;-74
2024/01/27 10:53:11;;;;;;;23.50;11.38;;;282.20;1868.80;;;;;;4781699;29;20035;-77
2024/01/27 10:55:40;;;;;;;22.02;13.50;;;282.00;1868.80;;;;;;4784613;30;20069;-75
2024/01/27 10:58:06;;;;;;;9.20;6.40;;;282.10;1843.20;;;;;;4785343;30;20028;-75
2024/01/27 11:00:33;;;;;;;22.83;14.18;;;281.90;1843.20;;;;;;4779606;30;20040;-76
2024/01/27 11:03:01;;;;;;;10.55;3.67;;;281.80;1868.80;;;;;;4785287;30;20034;-75
2024/01/27 11:05:29;;;;;;;8.45;5.13;;;256.90;1817.60;;;;;;4785108;30;20118;-75
2024/01/27 11:07:56;;;;;;;13.88;6.72;;;281.60;1843.20;;;;;;4781228;30;20027;-75
2024/01/27 11:10:23;;;;;;;6.80;3.63;;;256.90;1843.20;;;;;;4785715;30;20512;-75
2024/01/27 11:12:50;;;;;;;16.63;11.25;;;256.70;1843.20;;;;;;4785392;30;20032;-76
2024/01/27 11:15:16;;;;;;;14.45;8.15;;;256.70;1868.80;;;;;;4779559;30;20046;-75
2024/01/27 11:17:42;;;;;;;22.13;14.32;;;256.60;1868.80;;;;;;4787524;29;20036;-75
2024/01/27 11:20:15;;;;;;;18.00;8.20;;;256.80;1868.80;;;;;;4788573;30;20024;-76
2024/01/27 11:22:43;;;;;;;10.20;4.88;;;281.60;1894.40;;;;;;4763924;30;20071;-75
2024/01/27 11:25:12;;;;;;;8.93;3.55;;;281.60;1894.40;;;;;;4771091;30;20514;-75
2024/01/27 11:27:41;;;;;;;9.82;5.25;;;256.90;1843.20;;;;;;4792952;29;20046;-77
2024/01/27 11:30:24;;;;;;;5.78;2.80;;;256.70;1843.20;;;;;;4787989;30;20493;-76
2024/01/27 11:32:50;;;;;;;14.90;8.70;;;256.50;1868.80;;;;;;4785754;30;20035;-75
2024/01/27 11:35:17;;;;;;;70.10;46.92;;;256.70;1843.20;;;;;;4784381;30;20444;-75
2024/01/27 11:37:43;;;;;;;19.20;12.27;;;256.60;1843.20;;;;;;4779807;30;20051;-75
2024/01/27 11:40:10;;;;;;;13.75;10.13;;;256.70;1817.60;;;;;;4785146;29;20132;-75
2024/01/27 11:42:36;;;;;;;7.90;5.13;;;256.80;1843.20;;;;;;4782746;30;20122;-76
2024/01/27 11:45:01;;;;;;;9.77;4.95;;;256.70;1792.00;;;;;;4783501;30;20386;-74
2024/01/27 11:47:27;;;;;;;5.13;2.28;;;256.80;1792.00;;;;;;4784581;30;20038;-75
2024/01/27 11:49:56;;;;;;;7.65;4.95;;;256.80;1792.00;;;;;;4785013;30;20031;-75
2024/01/27 11:52:23;;;;;;;9.00;4.25;;;256.80;1792.00;;;;;;4778580;30;20039;-75
2024/01/27 11:54:59;;;;;;;12.60;7.57;;;256.90;1817.60;;;;;;4784752;29;20027;-75
2024/01/27 11:57:26;;;;;;;12.93;8.18;;;256.90;1817.60;;;;;;4784353;30;20035;-76
2024/01/27 11:59:53;;;;;;;11.60;7.63;;;281.80;1843.20;;;;;;4784736;30;20051;-76
2024/01/27 12:02:19;;;;;;;10.77;5.35;;;281.80;1843.20;;;;;;4784169;30;20352;-75
2024/01/27 12:04:45;;;;;;;4.28;2.30;;;281.80;1843.20;;;;;;4784648;30;20106;-75
2024/01/27 12:07:11;;;;;;;9.57;5.18;;;256.90;1792.00;;;;;;4784092;30;20106;-76
2024/01/27 12:09:37;;;;;;;8.93;3.33;;;256.90;1817.60;;;;;;4784440;30;20110;-76
2024/01/27 12:12:04;;;;;;;13.02;5.30;;;256.80;1766.40;;;;;;4783129;30;20046;-75
2024/01/27 12:14:46;;;;;;;17.38;8.95;;;256.80;1740.80;;;;;;4784033;29;20057;-75
2024/01/27 12:17:12;;;;;;;38.10;20.33;;;256.60;1740.80;;;;;;4783566;30;20039;-75
2024/01/27 12:19:38;;;;;;;7.15;3.85;;;256.50;1766.40;;;;;;4783603;30;20621;-75
2024/01/27 12:22:20;;;;;;;15.75;7.50;;;256.60;1766.40;;;;;;4753825;30;20101;-76
2024/01/27 12:24:49;;;;;;;8.25;3.42;;;256.60;1740.80;;;;;;4763289;30;20055;-76
2024/01/27 12:27:16;;;;;;;15.18;10.30;;;256.60;1740.80;;;;;;4783931;30;20038;-76
2024/01/27 12:29:42;;;;;;;20.38;9.55;;;256.70;1740.80;;;;;;4783914;30;20110;-76
2024/01/27 12:32:09;;;;;;;11.20;6.85;;;256.50;1766.40;;;;;;4773071;30;20126;-75
2024/01/27 12:34:40;;;;;;;19.40;10.85;;;256.50;1766.40;;;;;;4783705;30;20471;-75
2024/01/27 12:37:08;;;;;;;8.82;5.95;;;256.40;1792.00;;;;;;4783616;30;20035;-75
2024/01/27 12:39:34;;;;;;;22.25;11.43;;;256.50;1792.00;;;;;;4783274;30;20381;-75
2024/01/27 12:42:00;;;;;;;18.42;11.52;;;256.40;1817.60;;;;;;4783920;30;20036;-74
2024/01/27 12:44:25;;;;;;;33.55;18.42;;;256.50;1817.60;;;;;;4783347;30;20023;-74
2024/01/27 12:46:51;;;;;;;23.35;14.02;;;256.70;1817.60;;;;;;4783498;30;20054;-76
2024/01/27 12:49:17;;;;;;;24.77;13.43;;;256.70;1817.60;;;;;;4783521;30;20048;-75
2024/01/27 12:51:43;;;;;;;17.65;9.55;;;281.60;1843.20;;;;;;4780460;29;20039;-76
2024/01/27 12:54:09;;;;;;;16.92;10.35;;;256.50;1817.60;;;;;;4778271;30;20028;-75
2024/01/27 12:56:35;;;;;;;14.35;11.35;;;281.60;1843.20;;;;;;4780364;30;20391;-75
2024/01/27 12:59:01;;;;;;;19.50;13.18;;;256.90;1817.60;;;;;;4782589;30;20471;-74
2024/01/27 13:01:27;;;;;;;104.43;63.53;;;281.70;1843.20;;;;;;4783779;30;20055;-75
2024/01/27 13:03:53;;;;;;;23.75;16.15;;;281.80;1843.20;;;;;;4783823;30;20543;-75
2024/01/27 13:06:20;;;;;;;23.92;13.95;;;281.90;1817.60;;;;;;4780478;30;20031;-75
2024/01/27 13:08:46;;;;;;;13.07;8.13;;;281.90;1843.20;;;;;;4786815;30;20024;-75